Time,TemperatureF,DewpointF,PressureIn,WindDirection,WindDirectionDegrees,WindSpeedMPH,WindSpeedGustMPH,Humidity,HourlyPrecipIn,Conditions,Clouds,dailyrainin,SoftwareType,DateUTC
2013-06-02 00:05:00,63.5,58.6,29.74,NW,315,0.7,3.1,84,0.00,OVC,FEW,0.00,WeatherDisplay:10.37,2013-06-02 05:05:00,
2013-06-02 00:11:00,63.5,58.6,29.74,SW,225,0.7,3.5,84,0.00,OVC,FEW,0.00,WeatherDisplay:10.37,2013-06-02 05:11:00,
2013-06-02 00:16:00,63.5,58.6,29.74,SW,225,0.7,3.5,84,0.00,OVC,FEW,0.00,WeatherDisplay:10.37,2013-06-02 05:16:00,
2013-06-02 00:22:00,63.3,58.4,29.74,SE,135,0.7,3.5,84,0.00,OVC,FEW,0.00,WeatherDisplay:10.37,2013-06-02 05:22:00,
2013-06-02 00:27:00,63.1,58.2,29.74,NW,315,0.0,5.8,84,0.00,OVC,FEW,0.00,WeatherDisplay:10.37,2013-06-02 05:27:00,
2013-06-02 00:33:00,63.0,58.0,29.74,SW,225,1.6,3.5,84,0.00,OVC,FEW,0.00,WeatherDisplay:10.37,2013-06-02 05:33:00,
2013-06-02 00:39:00,63.0,58.0,29.74,NE,45,0.0,3.5,84,0.00,OVC,FEW,0.00,WeatherDisplay:10.37,2013-06-02 05:39:00,
2013-06-02 00:44:00,62.8,57.9,29.74,SW,225,0.7,2.2,84,0.00,OVC,FEW,0.00,WeatherDisplay:10.37,2013-06-02 05:44:00,
2013-06-02 00:50:00,62.8,57.9,29.75,SW,225,0.0,3.5,84,0.00,OVC,FEW,0.00,WeatherDisplay:10.37,2013-06-02 05:50:00,
2013-06-02 00:55:00,62.6,57.7,29.74,South,180,1.6,3.5,84,0.00,OVC,FEW,0.00,WeatherDisplay:10.37,2013-06-02 05:55:00,
2013-06-02 01:01:00,62.6,57.7,29.75,WSW,248,1.6,3.8,84,0.00,OVC,FEW,0.00,WeatherDisplay:10.37,2013-06-02 06:01:00,
2013-06-02 01:07:00,62.4,57.5,29.74,South,180,1.6,3.8,84,0.00,OVC,FEW,0.00,WeatherDisplay:10.37,2013-06-02 06:07:00,
2013-06-02 01:12:00,62.4,57.5,29.74,North,0,0.0,1.2,84,0.00,OVC,FEW,0.00,WeatherDisplay:10.37,2013-06-02 06:12:00,
2013-06-02 01:18:00,62.2,57.3,29.75,NW,315,0.0,1.6,84,0.00,OVC,FEW,0.00,WeatherDisplay:10.37,2013-06-02 06:18:00,
2013-06-02 01:23:00,62.1,57.2,29.75,SW,225,0.0,4.6,84,0.00,OVC,FEW,0.00,WeatherDisplay:10.37,2013-06-02 06:23:00,
2013-06-02 01:29:00,62.1,57.2,29.75,West,270,0.7,6.9,84,0.00,OVC,FEW,0.00,WeatherDisplay:10.37,2013-06-02 06:29:00,
2013-06-02 01:35:00,62.1,57.2,29.75,West,270,0.0,8.1,84,0.00,OVC,FEW,0.00,WeatherDisplay:10.37,2013-06-02 06:35:00,
2013-06-02 01:40:00,61.9,57.0,29.75,NW,315,0.0,2.3,84,0.00,OVC,FEW,0.00,WeatherDisplay:10.37,2013-06-02 06:40:00,
2013-06-02 01:46:00,61.9,57.0,29.75,West,270,0.7,4.6,84,0.00,OVC,FEW,0.00,WeatherDisplay:10.37,2013-06-02 06:46:00,
2013-06-02 01:51:00,61.7,56.8,29.75,NW,315,0.7,3.5,84,0.00,OVC,FEW,0.00,WeatherDisplay:10.37,2013-06-02 06:51:00,
2013-06-02 01:57:00,61.5,56.6,29.75,NW,315,0.7,4.6,84,0.00,OVC,FEW,0.00,WeatherDisplay:10.37,2013-06-02 06:57:00,
2013-06-02 02:03:00,61.5,56.6,29.75,NW,315,3.1,8.3,84,0.00,OVC,FEW,0.00,WeatherDisplay:10.37,2013-06-02 07:03:00,
2013-06-02 02:08:00,61.5,56.6,29.75,NW,315,1.6,3.5,84,0.00,OVC,FEW,0.00,WeatherDisplay:10.37,2013-06-02 07:08:00,
2013-06-02 02:14:00,61.5,56.6,29.75,West,270,0.7,8.1,84,0.00,OVC,FEW,0.00,WeatherDisplay:10.37,2013-06-02 07:14:00,
2013-06-02 02:19:00,61.5,56.6,29.75,NW,315,1.6,3.5,84,0.00,OVC,FEW,0.00,WeatherDisplay:10.37,2013-06-02 07:19:00,
2013-06-02 02:25:00,61.5,56.6,29.75,North,0,0.7,3.5,84,0.00,OVC,FEW,0.00,WeatherDisplay:10.37,2013-06-02 07:25:00,
2013-06-02 02:31:00,61.3,56.5,29.75,SW,225,0.0,4.6,84,0.00,OVC,FEW,0.00,WeatherDisplay:10.37,2013-06-02 07:31:00,
2013-06-02 02:36:00,61.2,56.3,29.75,West,270,3.1,4.6,84,0.00,OVC,FEW,0.00,WeatherDisplay:10.37,2013-06-02 07:36:00,
2013-06-02 02:42:00,61.2,56.3,29.75,SW,225,1.6,3.5,84,0.00,OVC,FEW,0.00,WeatherDisplay:10.37,2013-06-02 07:42:00,
2013-06-02 02:47:00,61.3,56.5,29.76,North,0,2.2,6.9,84,0.00,OVC,FEW,0.00,WeatherDisplay:10.37,2013-06-02 07:47:00,
2013-06-02 02:53:00,61.3,56.5,29.75,West,270,0.7,6.9,84,0.00,OVC,FEW,0.00,WeatherDisplay:10.37,2013-06-02 07:53:00,
2013-06-02 02:59:00,61.3,56.5,29.76,West,270,0.7,5.8,84,0.00,OVC,FEW,0.00,WeatherDisplay:10.37,2013-06-02 07:59:00,
2013-06-02 03:04:00,61.2,56.3,29.76,NW,315,0.0,2.3,84,0.00,OVC,FEW,0.00,WeatherDisplay:10.37,2013-06-02 08:04:00,
2013-06-02 03:10:00,61.0,56.1,29.76,West,270,0.0,3.5,84,0.00,OVC,FEW,0.00,WeatherDisplay:10.37,2013-06-02 08:10:00,
2013-06-02 03:15:00,60.8,55.9,29.77,West,270,0.7,3.5,84,0.00,OVC,FEW,0.00,WeatherDisplay:10.37,2013-06-02 08:15:00,
2013-06-02 03:21:00,60.8,55.9,29.77,NW,315,0.7,5.8,84,0.00,OVC,FEW,0.00,WeatherDisplay:10.37,2013-06-02 08:21:00,
2013-06-02 03:27:00,60.8,55.9,29.77,SW,225,1.6,3.8,84,0.00,OVC,FEW,0.00,WeatherDisplay:10.37,2013-06-02 08:27:00,
2013-06-02 03:32:00,61.0,56.1,29.78,NW,315,2.2,6.0,84,0.00,OVC,FEW,0.00,WeatherDisplay:10.37,2013-06-02 08:32:00,
2013-06-02 03:38:00,61.0,56.1,29.77,North,0,4.5,8.3,84,0.00,OVC,FEW,0.00,WeatherDisplay:10.37,2013-06-02 08:38:00,
2013-06-02 03:43:00,61.0,56.1,29.78,NW,315,0.7,4.6,84,0.00,OVC,FEW,0.00,WeatherDisplay:10.37,2013-06-02 08:43:00,
2013-06-02 03:49:00,60.8,55.9,29.78,NW,315,0.7,8.1,84,0.00,OVC,FEW,0.00,WeatherDisplay:10.37,2013-06-02 08:49:00,
2013-06-02 03:55:00,60.8,55.9,29.78,NE,45,2.2,10.4,84,0.00,OVC,FEW,0.00,WeatherDisplay:10.37,2013-06-02 08:55:00,
2013-06-02 04:00:00,60.6,55.8,29.78,NW,315,0.7,12.7,84,0.00,OVC,FEW,0.00,WeatherDisplay:10.37,2013-06-02 09:00:00,
2013-06-02 04:06:00,60.6,55.8,29.79,NW,315,2.2,3.5,84,0.00,OVC,FEW,0.00,WeatherDisplay:10.37,2013-06-02 09:06:00,
2013-06-02 04:11:00,60.6,55.8,29.79,West,270,2.2,6.9,84,0.00,OVC,FEW,0.00,WeatherDisplay:10.37,2013-06-02 09:11:00,
2013-06-02 04:17:00,60.4,55.6,29.80,NW,315,1.6,8.1,84,0.00,OVC,FEW,0.00,WeatherDisplay:10.37,2013-06-02 09:17:00,
2013-06-02 04:23:00,60.4,55.6,29.80,West,270,1.6,8.1,84,0.00,OVC,FEW,0.00,WeatherDisplay:10.37,2013-06-02 09:23:00,
2013-06-02 04:28:00,60.3,55.4,29.80,NE,45,3.8,6.9,84,0.00,OVC,FEW,0.00,WeatherDisplay:10.37,2013-06-02 09:28:00,
2013-06-02 04:34:00,60.3,55.4,29.80,SW,225,0.7,3.5,84,0.00,OVC,FEW,0.00,WeatherDisplay:10.37,2013-06-02 09:34:00,
2013-06-02 04:39:00,60.3,55.4,29.81,NW,315,4.5,11.5,84,0.00,OVC,FEW,0.00,WeatherDisplay:10.37,2013-06-02 09:39:00,
2013-06-02 04:45:00,60.1,55.2,29.81,WNW,292,2.2,10.4,84,0.00,OVC,FEW,0.00,WeatherDisplay:10.37,2013-06-02 09:45:00,
2013-06-02 04:51:00,60.1,55.2,29.81,NW,315,3.8,8.1,84,0.00,OVC,FEW,0.00,WeatherDisplay:10.37,2013-06-02 09:51:00,
2013-06-02 04:56:00,60.1,55.2,29.82,North,0,4.5,10.4,84,0.00,OVC,FEW,0.00,WeatherDisplay:10.37,2013-06-02 09:56:00,
2013-06-02 05:02:00,60.1,55.2,29.82,NW,315,2.2,4.5,84,0.00,OVC,FEW,0.00,WeatherDisplay:10.37,2013-06-02 10:02:00,
2013-06-02 05:07:00,59.9,55.1,29.83,NNW,338,3.1,5.8,84,0.00,OVC,FEW,0.00,WeatherDisplay:10.37,2013-06-02 10:07:00,
2013-06-02 05:13:00,59.7,54.9,29.83,West,270,3.1,9.2,84,0.00,OVC,FEW,0.00,WeatherDisplay:10.37,2013-06-02 10:13:00,
2013-06-02 05:19:00,59.4,54.5,29.83,West,270,3.1,9.2,84,0.00,OVC,FEW,0.00,WeatherDisplay:10.37,2013-06-02 10:19:00,
2013-06-02 05:24:00,59.2,54.3,29.83,North,0,0.7,12.7,84,0.00,OVC,FEW,0.00,WeatherDisplay:10.37,2013-06-02 10:24:00,
2013-06-02 05:30:00,59.0,54.2,29.83,NW,315,4.5,12.7,84,0.00,OVC,FEW,0.00,WeatherDisplay:10.37,2013-06-02 10:30:00,
2013-06-02 05:35:00,58.8,54.0,29.84,North,0,6.0,12.7,84,0.00,OVC,FEW,0.00,WeatherDisplay:10.37,2013-06-02 10:35:00,
2013-06-02 05:41:00,58.6,53.8,29.84,North,0,0.7,10.4,84,0.00,OVC,FEW,0.00,WeatherDisplay:10.37,2013-06-02 10:41:00,
2013-06-02 05:47:00,58.6,53.8,29.84,West,270,3.1,7.6,84,0.00,OVC,FEW,0.00,WeatherDisplay:10.37,2013-06-02 10:47:00,
2013-06-02 05:52:00,58.5,53.6,29.84,West,270,3.1,5.8,84,0.00,OVC,FEW,0.00,WeatherDisplay:10.37,2013-06-02 10:52:00,
2013-06-02 05:58:00,58.5,53.6,29.85,NW,315,2.2,9.2,84,0.00,OVC,FEW,0.00,WeatherDisplay:10.37,2013-06-02 10:58:00,
2013-06-02 06:03:00,58.3,53.5,29.85,North,0,3.1,10.4,84,0.00,OVC,FEW,0.00,WeatherDisplay:10.37,2013-06-02 11:03:00,
2013-06-02 06:09:00,57.9,53.1,29.85,NW,315,5.4,10.4,84,0.00,OVC,FEW,0.00,WeatherDisplay:10.37,2013-06-02 11:09:00,
2013-06-02 06:15:00,57.9,53.1,29.86,West,270,3.1,8.1,84,0.00,OVC,FEW,0.00,WeatherDisplay:10.37,2013-06-02 11:15:00,
2013-06-02 06:20:00,57.7,52.9,29.85,NW,315,3.1,5.8,84,0.00,OVC,FEW,0.00,WeatherDisplay:10.37,2013-06-02 11:20:00,
2013-06-02 06:26:00,57.6,52.8,29.85,North,0,4.5,9.2,84,0.00,OVC,FEW,0.00,WeatherDisplay:10.37,2013-06-02 11:26:00,
2013-06-02 06:31:00,57.6,52.8,29.86,SW,225,0.7,3.5,84,0.00,OVC,FEW,0.00,WeatherDisplay:10.37,2013-06-02 11:31:00,
2013-06-02 06:37:00,57.4,52.6,29.86,West,270,0.7,3.5,84,0.00,OVC,FEW,0.00,WeatherDisplay:10.37,2013-06-02 11:37:00,
2013-06-02 06:43:00,57.2,52.4,29.86,South,180,1.6,5.8,84,0.00,OVC,FEW,0.00,WeatherDisplay:10.37,2013-06-02 11:43:00,
2013-06-02 06:48:00,57.0,52.2,29.86,North,0,1.6,6.9,84,0.00,OVC,FEW,0.00,WeatherDisplay:10.37,2013-06-02 11:48:00,
2013-06-02 06:54:00,56.8,52.1,29.87,NW,315,2.2,11.5,84,0.00,OVC,FEW,0.00,WeatherDisplay:10.37,2013-06-02 11:54:00,
2013-06-02 06:59:00,56.8,52.1,29.87,West,270,0.7,4.6,84,0.00,OVC,FEW,0.00,WeatherDisplay:10.37,2013-06-02 11:59:00,
2013-06-02 07:05:00,56.8,52.1,29.87,NW,315,4.5,8.1,84,0.00,OVC,FEW,0.00,WeatherDisplay:10.37,2013-06-02 12:05:00,
2013-06-02 07:11:00,56.8,52.1,29.88,NW,315,3.8,11.5,84,0.00,OVC,FEW,0.00,WeatherDisplay:10.37,2013-06-02 12:11:00,
2013-06-02 07:16:00,56.8,52.1,29.88,West,270,0.7,8.1,84,0.00,OVC,FEW,0.00,WeatherDisplay:10.37,2013-06-02 12:16:00,
2013-06-02 07:22:00,56.8,52.1,29.88,NW,315,1.6,5.8,84,0.00,OVC,FEW,0.00,WeatherDisplay:10.37,2013-06-02 12:22:00,
2013-06-02 07:27:00,56.8,52.1,29.88,North,0,1.6,6.9,84,0.00,OVC,FEW,0.00,WeatherDisplay:10.37,2013-06-02 12:27:00,
2013-06-02 07:33:00,56.7,51.9,29.88,West,270,1.6,5.8,84,0.00,OVC,FEW,0.00,WeatherDisplay:10.37,2013-06-02 12:33:00,
2013-06-02 07:39:00,56.7,51.9,29.88,NW,315,1.6,8.1,84,0.00,OVC,FEW,0.00,WeatherDisplay:10.37,2013-06-02 12:39:00,
2013-06-02 07:44:00,56.7,51.9,29.89,NE,45,3.1,6.9,84,0.00,OVC,FEW,0.00,WeatherDisplay:10.37,2013-06-02 12:44:00,
2013-06-02 07:50:00,56.7,51.9,29.89,West,270,0.7,6.9,84,0.00,OVC,FEW,0.00,WeatherDisplay:10.37,2013-06-02 12:50:00,
2013-06-02 07:55:00,56.7,51.9,29.89,NE,45,3.8,9.2,84,0.00,OVC,FEW,0.00,WeatherDisplay:10.37,2013-06-02 12:55:00,
2013-06-02 08:01:00,56.8,52.1,29.89,NW,315,3.8,8.1,84,0.00,OVC,FEW,0.00,WeatherDisplay:10.37,2013-06-02 13:01:00,
2013-06-02 08:07:00,56.5,51.7,29.90,NW,315,3.8,9.2,84,0.00,OVC,FEW,0.00,WeatherDisplay:10.37,2013-06-02 13:07:00,
2013-06-02 08:12:00,56.5,51.7,29.90,NW,315,2.2,6.9,84,0.00,OVC,FEW,0.00,WeatherDisplay:10.37,2013-06-02 13:12:00,
2013-06-02 08:18:00,56.7,51.9,29.90,NW,315,0.7,5.8,84,0.00,OVC,FEW,0.00,WeatherDisplay:10.37,2013-06-02 13:18:00,
2013-06-02 08:23:00,56.7,51.9,29.91,WNW,292,4.5,7.6,84,0.00,OVC,FEW,0.00,WeatherDisplay:10.37,2013-06-02 13:23:00,
2013-06-02 08:29:00,56.3,51.5,29.91,East,90,3.1,9.2,84,0.00,OVC,FEW,0.00,WeatherDisplay:10.37,2013-06-02 13:29:00,
2013-06-02 08:35:00,56.5,51.7,29.91,NW,315,3.1,6.0,84,0.00,OVC,FEW,0.00,WeatherDisplay:10.37,2013-06-02 13:35:00,
2013-06-02 08:40:00,56.7,51.2,29.91,NW,315,3.1,8.1,82,0.00,OVC,FEW,0.00,WeatherDisplay:10.37,2013-06-02 13:40:00,
2013-06-02 08:46:00,57.4,51.9,29.91,West,270,0.7,6.9,82,0.00,OVC,FEW,0.00,WeatherDisplay:10.37,2013-06-02 13:46:00,
2013-06-02 08:51:00,57.9,51.1,29.91,NW,315,3.1,9.2,78,0.00,OVC,FEW,0.00,WeatherDisplay:10.37,2013-06-02 13:51:00,
2013-06-02 08:57:00,58.8,52.0,29.91,NE,45,2.2,5.8,78,0.00,OVC,FEW,0.00,WeatherDisplay:10.37,2013-06-02 13:57:00,
2013-06-02 09:03:00,59.2,51.6,29.91,NW,315,2.2,10.4,76,0.00,OVC,FEW,0.00,WeatherDisplay:10.37,2013-06-02 14:03:00,
2013-06-02 09:08:00,59.5,51.2,29.91,North,0,3.8,8.1,74,0.00,OVC,FEW,0.00,WeatherDisplay:10.37,2013-06-02 14:08:00,
2013-06-02 09:14:00,59.4,51.1,29.91,NW,315,3.1,9.2,74,0.00,OVC,FEW,0.00,WeatherDisplay:10.37,2013-06-02 14:14:00,
2013-06-02 09:19:00,59.2,50.9,29.91,North,0,4.5,8.1,74,0.00,OVC,FEW,0.00,WeatherDisplay:10.37,2013-06-02 14:19:00,
2013-06-02 09:25:00,57.9,50.8,29.91,North,0,3.8,13.8,77,0.00,OVC,FEW,0.00,WeatherDisplay:10.37,2013-06-02 14:25:00,
2013-06-02 09:31:00,57.9,51.1,29.91,NW,315,3.1,12.7,78,0.00,OVC,FEW,0.00,WeatherDisplay:10.37,2013-06-02 14:31:00,
2013-06-02 09:36:00,57.9,51.1,29.91,NW,315,4.5,15.0,78,0.00,OVC,FEW,0.00,WeatherDisplay:10.37,2013-06-02 14:36:00,
2013-06-02 09:42:00,57.7,50.9,29.91,North,0,4.5,11.4,78,0.00,OVC,FEW,0.00,WeatherDisplay:10.37,2013-06-02 14:42:00,
2013-06-02 09:47:00,57.0,51.2,29.91,NW,315,6.0,8.3,81,0.00,OVC,FEW,0.00,WeatherDisplay:10.37,2013-06-02 14:47:00,
2013-06-02 09:53:00,56.3,50.9,29.91,North,0,4.5,10.4,82,0.00,OVC,FEW,0.00,WeatherDisplay:10.37,2013-06-02 14:53:00,
2013-06-02 09:59:00,55.6,50.5,29.92,WNW,292,4.5,9.2,83,0.00,OVC,FEW,0.00,WeatherDisplay:10.37,2013-06-02 14:59:00,
2013-06-02 10:04:00,55.8,50.3,29.92,North,0,5.4,9.8,82,0.00,OVC,FEW,0.00,WeatherDisplay:10.37,2013-06-02 15:04:00,
2013-06-02 10:10:00,56.1,50.4,29.92,NNW,338,3.1,8.1,81,0.00,OVC,FEW,0.00,WeatherDisplay:10.37,2013-06-02 15:10:00,
2013-06-02 10:15:00,56.7,49.2,29.93,NW,315,3.1,8.1,76,0.00,OVC,FEW,0.00,WeatherDisplay:10.37,2013-06-02 15:15:00,
2013-06-02 10:21:00,57.6,50.0,29.92,NW,315,1.6,6.0,76,0.00,OVC,FEW,0.00,WeatherDisplay:10.37,2013-06-02 15:21:00,
2013-06-02 10:27:00,59.7,51.8,29.93,North,0,1.6,5.8,75,0.00,OVC,FEW,0.00,WeatherDisplay:10.37,2013-06-02 15:27:00,
2013-06-02 10:32:00,59.5,49.0,29.93,NW,315,5.4,12.7,68,0.00,OVC,FEW,0.00,WeatherDisplay:10.37,2013-06-02 15:32:00,
2013-06-02 10:38:00,59.2,47.8,29.93,NE,45,4.5,12.7,66,0.00,OVC,FEW,0.00,WeatherDisplay:10.37,2013-06-02 15:38:00,
2013-06-02 10:43:00,60.6,48.8,29.93,WNW,292,2.2,5.4,65,0.00,OVC,FEW,0.00,WeatherDisplay:10.37,2013-06-02 15:43:00,
2013-06-02 10:49:00,60.8,46.8,29.93,North,0,5.4,10.4,60,0.00,OVC,FEW,0.00,WeatherDisplay:10.37,2013-06-02 15:49:00,
2013-06-02 10:55:00,60.6,45.8,29.93,NW,315,3.8,6.9,58,0.00,OVC,FEW,0.00,WeatherDisplay:10.37,2013-06-02 15:55:00,
2013-06-02 11:00:00,61.5,45.7,29.93,NW,315,3.1,10.4,56,0.00,OVC,FEW,0.00,WeatherDisplay:10.37,2013-06-02 16:00:00,
2013-06-02 11:06:00,61.9,44.6,29.93,NW,315,5.4,5.4,53,0.00,OVC,FEW,0.00,WeatherDisplay:10.37,2013-06-02 16:06:00,
2013-06-02 11:11:00,61.5,44.2,29.93,NW,315,2.2,10.4,53,0.00,OVC,FEW,0.00,WeatherDisplay:10.37,2013-06-02 16:11:00,
2013-06-02 11:17:00,61.9,44.1,29.93,NW,315,5.4,9.2,52,0.00,OVC,FEW,0.00,WeatherDisplay:10.37,2013-06-02 16:17:00,
2013-06-02 11:23:00,61.5,44.2,29.93,NW,315,6.9,12.7,53,0.00,OVC,FEW,0.00,WeatherDisplay:10.37,2013-06-02 16:23:00,
2013-06-02 11:28:00,62.2,46.8,29.93,NW,315,3.1,9.2,57,0.00,OVC,FEW,0.00,WeatherDisplay:10.37,2013-06-02 16:28:00,
2013-06-02 11:34:00,63.3,46.9,29.93,NE,45,3.1,12.7,55,0.00,OVC,FEW,0.00,WeatherDisplay:10.37,2013-06-02 16:34:00,
2013-06-02 11:39:00,63.7,46.2,29.93,NW,315,5.4,8.1,53,0.00,OVC,FEW,0.00,WeatherDisplay:10.37,2013-06-02 16:39:00,
2013-06-02 11:45:00,63.3,45.9,29.93,NW,315,5.4,13.8,53,0.00,OVC,FEW,0.00,WeatherDisplay:10.37,2013-06-02 16:45:00,
2013-06-02 11:51:00,63.1,46.2,29.93,NW,315,3.1,10.4,54,0.00,OVC,FEW,0.00,WeatherDisplay:10.37,2013-06-02 16:51:00,
2013-06-02 11:56:00,63.3,45.9,29.94,North,0,4.5,10.4,53,0.00,OVC,FEW,0.00,WeatherDisplay:10.37,2013-06-02 16:56:00,
2013-06-02 12:02:00,63.5,45.0,29.94,NW,315,3.1,9.2,51,0.00,OVC,FEW,0.00,WeatherDisplay:10.37,2013-06-02 17:02:00,
2013-06-02 12:07:00,63.7,44.7,29.93,North,0,3.1,8.1,50,0.00,OVC,FEW,0.00,WeatherDisplay:10.37,2013-06-02 17:07:00,
2013-06-02 12:13:00,63.3,44.9,29.94,North,0,5.4,11.5,51,0.00,OVC,FEW,0.00,WeatherDisplay:10.37,2013-06-02 17:13:00,
2013-06-02 12:19:00,62.6,46.2,29.94,West,270,3.8,12.7,55,0.00,OVC,FEW,0.00,WeatherDisplay:10.37,2013-06-02 17:19:00,
2013-06-02 12:24:00,62.8,45.9,29.94,NW,315,3.8,8.3,54,0.00,OVC,FEW,0.00,WeatherDisplay:10.37,2013-06-02 17:24:00,
2013-06-02 12:30:00,62.8,45.9,29.94,NW,315,2.2,11.5,54,0.00,OVC,FEW,0.00,WeatherDisplay:10.37,2013-06-02 17:30:00,
2013-06-02 12:35:00,63.0,46.5,29.94,NW,315,3.8,6.9,55,0.00,OVC,FEW,0.00,WeatherDisplay:10.37,2013-06-02 17:35:00,
2013-06-02 12:41:00,62.1,45.7,29.95,WNW,292,4.5,6.9,55,0.00,OVC,FEW,0.00,WeatherDisplay:10.37,2013-06-02 17:41:00,
2013-06-02 12:47:00,62.2,46.3,29.95,WNW,292,3.8,8.1,56,0.00,OVC,FEW,0.00,WeatherDisplay:10.37,2013-06-02 17:47:00,
2013-06-02 12:52:00,61.3,46.0,29.94,NW,315,3.8,10.4,57,0.00,OVC,FEW,0.00,WeatherDisplay:10.37,2013-06-02 17:52:00,
2013-06-02 12:58:00,61.9,46.0,29.95,NW,315,5.4,8.1,56,0.00,OVC,FEW,0.00,WeatherDisplay:10.37,2013-06-02 17:58:00,
2013-06-02 13:03:00,62.4,47.0,29.94,NW,315,3.1,8.1,57,0.00,OVC,FEW,0.00,WeatherDisplay:10.37,2013-06-02 18:03:00,
2013-06-02 13:09:00,63.7,47.2,29.95,West,270,3.8,8.3,55,0.00,OVC,FEW,0.00,WeatherDisplay:10.37,2013-06-02 18:09:00,
2013-06-02 13:15:00,63.0,47.5,29.95,North,0,1.6,5.8,57,0.00,OVC,FEW,0.00,WeatherDisplay:10.37,2013-06-02 18:15:00,
2013-06-02 13:20:00,63.0,46.5,29.95,NW,315,3.1,9.2,55,0.00,OVC,FEW,0.00,WeatherDisplay:10.37,2013-06-02 18:20:00,
2013-06-02 13:26:00,64.0,46.6,29.95,North,0,4.5,9.2,53,0.00,OVC,FEW,0.00,WeatherDisplay:10.37,2013-06-02 18:26:00,
2013-06-02 13:31:00,63.7,45.7,29.95,NW,315,3.8,8.3,52,0.00,OVC,FEW,0.00,WeatherDisplay:10.37,2013-06-02 18:31:00,
2013-06-02 13:37:00,63.1,46.7,29.95,NW,315,3.8,5.8,55,0.00,OVC,FEW,0.00,WeatherDisplay:10.37,2013-06-02 18:37:00,
2013-06-02 13:43:00,62.6,45.7,29.95,North,0,0.7,5.8,54,0.00,OVC,FEW,0.00,WeatherDisplay:10.37,2013-06-02 18:43:00,
2013-06-02 13:48:00,62.6,45.2,29.95,North,0,3.8,10.4,53,0.00,OVC,FEW,0.00,WeatherDisplay:10.37,2013-06-02 18:48:00,
2013-06-02 13:54:00,62.2,44.9,29.95,NE,45,2.2,8.1,53,0.00,OVC,FEW,0.00,WeatherDisplay:10.37,2013-06-02 18:54:00,
2013-06-02 13:59:00,62.1,45.2,29.95,NW,315,4.5,5.8,54,0.00,OVC,FEW,0.00,WeatherDisplay:10.37,2013-06-02 18:59:00,
2013-06-02 14:05:00,61.7,45.4,29.95,North,0,2.2,8.1,55,0.00,OVC,FEW,0.00,WeatherDisplay:10.37,2013-06-02 19:05:00,
2013-06-02 14:11:00,62.1,45.2,29.95,NE,45,3.1,8.1,54,0.00,OVC,FEW,0.00,WeatherDisplay:10.37,2013-06-02 19:11:00,
2013-06-02 14:16:00,62.8,47.3,29.95,NW,315,0.0,2.3,57,0.00,OVC,FEW,0.00,WeatherDisplay:10.37,2013-06-02 19:16:00,
2013-06-02 14:22:00,61.9,45.5,29.96,NW,315,3.1,10.4,55,0.00,OVC,FEW,0.00,WeatherDisplay:10.37,2013-06-02 19:22:00,
2013-06-02 14:27:00,61.7,45.4,29.96,NW,315,0.7,5.8,55,0.00,OVC,FEW,0.00,WeatherDisplay:10.37,2013-06-02 19:27:00,
2013-06-02 14:33:00,61.9,46.5,29.96,SE,135,0.7,3.5,57,0.00,OVC,FEW,0.00,WeatherDisplay:10.37,2013-06-02 19:33:00,
2013-06-02 14:39:00,62.1,46.2,29.97,North,0,0.7,4.6,56,0.00,OVC,FEW,0.00,WeatherDisplay:10.37,2013-06-02 19:39:00,
2013-06-02 14:44:00,62.2,45.9,29.96,North,0,3.1,5.4,55,0.00,OVC,FEW,0.00,WeatherDisplay:10.37,2013-06-02 19:44:00,
2013-06-02 14:50:00,62.1,44.7,29.96,NW,315,3.8,6.9,53,0.00,OVC,FEW,0.00,WeatherDisplay:10.37,2013-06-02 19:50:00,
2013-06-02 14:55:00,62.2,45.4,29.96,NW,315,2.2,3.5,54,0.00,OVC,FEW,0.00,WeatherDisplay:10.37,2013-06-02 19:55:00,
2013-06-02 15:01:00,62.8,45.4,29.96,NW,315,3.1,6.0,53,0.00,OVC,FEW,0.00,WeatherDisplay:10.37,2013-06-02 20:01:00,
2013-06-02 15:07:00,62.6,45.7,29.97,NE,45,1.6,6.9,54,0.00,OVC,FEW,0.00,WeatherDisplay:10.37,2013-06-02 20:07:00,
2013-06-02 15:12:00,62.6,45.7,29.96,NW,315,0.0,4.6,54,0.00,OVC,FEW,0.00,WeatherDisplay:10.37,2013-06-02 20:12:00,
2013-06-02 15:18:00,62.8,45.9,29.96,NE,45,2.2,5.8,54,0.00,OVC,FEW,0.00,WeatherDisplay:10.37,2013-06-02 20:18:00,
2013-06-02 15:23:00,63.3,46.9,29.96,North,0,0.7,3.5,55,0.00,OVC,FEW,0.00,WeatherDisplay:10.37,2013-06-02 20:23:00,
2013-06-02 15:29:00,63.5,46.1,29.96,North,0,0.0,3.5,53,0.00,OVC,FEW,0.00,WeatherDisplay:10.37,2013-06-02 20:29:00,
2013-06-02 15:35:00,63.1,45.2,29.96,North,0,3.1,5.8,52,0.00,OVC,FEW,0.00,WeatherDisplay:10.37,2013-06-02 20:35:00,
2013-06-02 15:40:00,63.0,46.0,29.96,NW,315,2.2,4.6,54,0.00,OVC,FEW,0.00,WeatherDisplay:10.37,2013-06-02 20:40:00,
2013-06-02 15:46:00,62.6,45.7,29.96,North,0,0.7,8.1,54,0.00,OVC,FEW,0.00,WeatherDisplay:10.37,2013-06-02 20:46:00,
2013-06-02 15:51:00,62.8,46.4,29.96,East,90,2.2,5.8,55,0.00,OVC,FEW,0.00,WeatherDisplay:10.37,2013-06-02 20:51:00,
2013-06-02 15:57:00,62.8,45.9,29.96,NW,315,0.7,5.8,54,0.00,OVC,FEW,0.00,WeatherDisplay:10.37,2013-06-02 20:57:00,
2013-06-02 16:03:00,63.5,45.6,29.97,North,0,2.2,5.4,52,0.00,OVC,FEW,0.00,WeatherDisplay:10.37,2013-06-02 21:03:00,
2013-06-02 16:08:00,63.3,45.4,29.96,NW,315,3.1,4.5,52,0.00,OVC,FEW,0.00,WeatherDisplay:10.37,2013-06-02 21:08:00,
2013-06-02 16:14:00,63.3,45.9,29.96,NW,315,0.7,3.5,53,0.00,OVC,FEW,0.00,WeatherDisplay:10.37,2013-06-02 21:14:00,
2013-06-02 16:19:00,63.7,47.2,29.96,North,0,0.7,3.1,55,0.00,OVC,FEW,0.00,WeatherDisplay:10.37,2013-06-02 21:19:00,
2013-06-02 16:25:00,63.7,45.7,29.96,NE,45,0.7,3.5,52,0.00,OVC,FEW,0.00,WeatherDisplay:10.37,2013-06-02 21:25:00,
2013-06-02 16:31:00,63.9,44.9,29.96,NW,315,0.7,1.2,50,0.00,OVC,FEW,0.00,WeatherDisplay:10.37,2013-06-02 21:31:00,
2013-06-02 16:36:00,63.9,45.4,29.95,NW,315,0.0,6.9,51,0.00,OVC,FEW,0.00,WeatherDisplay:10.37,2013-06-02 21:36:00,
2013-06-02 16:42:00,63.7,44.7,29.96,North,0,0.0,4.6,50,0.00,OVC,FEW,0.00,WeatherDisplay:10.37,2013-06-02 21:42:00,
2013-06-02 16:47:00,63.3,45.4,29.96,North,0,2.2,3.5,52,0.00,OVC,FEW,0.00,WeatherDisplay:10.37,2013-06-02 21:47:00,
2013-06-02 16:53:00,63.3,46.4,29.96,NE,45,0.7,3.5,54,0.00,OVC,FEW,0.00,WeatherDisplay:10.37,2013-06-02 21:53:00,
2013-06-02 16:59:00,63.3,45.4,29.96,NE,45,0.7,3.5,52,0.00,OVC,FEW,0.00,WeatherDisplay:10.37,2013-06-02 21:59:00,
2013-06-02 17:04:00,63.3,47.3,29.96,North,0,0.7,3.5,56,0.00,OVC,FEW,0.00,WeatherDisplay:10.37,2013-06-02 22:04:00,
2013-06-02 17:10:00,63.5,45.6,29.96,NW,315,2.2,3.8,52,0.00,OVC,FEW,0.00,WeatherDisplay:10.37,2013-06-02 22:10:00,
2013-06-02 17:15:00,63.3,46.4,29.95,North,0,0.7,3.5,54,0.00,OVC,FEW,0.00,WeatherDisplay:10.37,2013-06-02 22:15:00,
2013-06-02 17:21:00,63.1,46.2,29.96,North,0,1.6,3.8,54,0.00,OVC,FEW,0.00,WeatherDisplay:10.37,2013-06-02 22:21:00,
2013-06-02 17:27:00,63.0,46.5,29.95,North,0,1.6,3.8,55,0.00,OVC,FEW,0.00,WeatherDisplay:10.37,2013-06-02 22:27:00,
2013-06-02 17:32:00,63.0,46.5,29.95,NW,315,0.7,2.3,55,0.00,OVC,FEW,0.00,WeatherDisplay:10.37,2013-06-02 22:32:00,
2013-06-02 17:38:00,63.0,46.5,29.96,NW,315,0.7,2.3,55,0.00,OVC,FEW,0.00,WeatherDisplay:10.37,2013-06-02 22:38:00,
2013-06-02 17:43:00,63.1,45.7,29.96,NW,315,0.0,3.5,53,0.00,OVC,FEW,0.00,WeatherDisplay:10.37,2013-06-02 22:43:00,
2013-06-02 17:49:00,63.5,47.0,29.95,WNW,292,1.6,3.5,55,0.00,OVC,FEW,0.00,WeatherDisplay:10.37,2013-06-02 22:49:00,
2013-06-02 17:55:00,63.5,46.1,29.95,NW,315,2.2,6.0,53,0.00,OVC,FEW,0.00,WeatherDisplay:10.37,2013-06-02 22:55:00,
2013-06-02 18:00:00,63.0,46.0,29.96,North,0,2.2,5.8,54,0.00,OVC,FEW,0.00,WeatherDisplay:10.37,2013-06-02 23:00:00,
2013-06-02 18:06:00,62.8,46.8,29.96,North,0,0.0,1.6,56,0.00,OVC,FEW,0.00,WeatherDisplay:10.37,2013-06-02 23:06:00,
2013-06-02 18:11:00,63.0,46.5,29.95,North,0,2.2,5.4,55,0.00,OVC,FEW,0.00,WeatherDisplay:10.37,2013-06-02 23:11:00,
2013-06-02 18:17:00,63.1,46.7,29.96,ENE,68,1.6,3.5,55,0.00,OVC,FEW,0.00,WeatherDisplay:10.37,2013-06-02 23:17:00,
2013-06-02 18:23:00,63.3,46.4,29.96,NW,315,0.7,1.2,54,0.00,OVC,FEW,0.00,WeatherDisplay:10.37,2013-06-02 23:23:00,
2013-06-02 18:28:00,63.3,45.9,29.96,NE,45,2.2,4.6,53,0.00,OVC,FEW,0.00,WeatherDisplay:10.37,2013-06-02 23:28:00,
2013-06-02 18:34:00,63.0,46.0,29.96,NE,45,0.0,1.6,54,0.00,OVC,FEW,0.00,WeatherDisplay:10.37,2013-06-02 23:34:00,
2013-06-02 18:39:00,63.0,46.0,29.96,NE,45,0.0,1.2,54,0.00,OVC,FEW,0.00,WeatherDisplay:10.37,2013-06-02 23:39:00,
2013-06-02 18:45:00,63.0,45.6,29.96,NW,315,0.0,2.3,53,0.00,OVC,FEW,0.00,WeatherDisplay:10.37,2013-06-02 23:45:00,
2013-06-02 18:51:00,62.8,45.9,29.96,NE,45,1.6,3.1,54,0.00,OVC,FEW,0.00,WeatherDisplay:10.37,2013-06-02 23:51:00,
2013-06-02 18:56:00,62.4,46.0,29.95,NE,45,0.0,1.6,55,0.00,OVC,FEW,0.00,WeatherDisplay:10.37,2013-06-02 23:56:00,
2013-06-02 19:02:00,62.4,47.0,29.96,NE,45,0.0,0.0,57,0.00,OVC,FEW,0.00,WeatherDisplay:10.37,2013-06-03 00:02:00,
2013-06-02 19:07:00,62.4,46.5,29.96,NE,45,0.0,2.3,56,0.00,OVC,FEW,0.00,WeatherDisplay:10.37,2013-06-03 00:07:00,
2013-06-02 19:13:00,62.2,45.9,29.95,North,0,0.7,3.5,55,0.00,OVC,FEW,0.00,WeatherDisplay:10.37,2013-06-03 00:13:00,
2013-06-02 19:19:00,62.1,46.2,29.95,NE,45,0.0,1.2,56,0.00,OVC,FEW,0.00,WeatherDisplay:10.37,2013-06-03 00:19:00,
2013-06-02 19:24:00,61.7,45.8,29.96,North,0,0.0,1.6,56,0.00,OVC,FEW,0.00,WeatherDisplay:10.37,2013-06-03 00:24:00,
2013-06-02 19:30:00,61.9,45.5,29.96,NW,315,1.6,3.8,55,0.00,OVC,FEW,0.00,WeatherDisplay:10.37,2013-06-03 00:30:00,
2013-06-02 19:35:00,61.3,46.4,29.96,NE,45,0.0,1.2,58,0.00,OVC,FEW,0.00,WeatherDisplay:10.37,2013-06-03 00:35:00,
2013-06-02 19:41:00,61.2,46.3,29.96,NW,315,0.0,3.5,58,0.00,OVC,FEW,0.00,WeatherDisplay:10.37,2013-06-03 00:41:00,
2013-06-02 19:47:00,60.8,45.9,29.96,NE,45,0.0,3.5,58,0.00,OVC,FEW,0.00,WeatherDisplay:10.37,2013-06-03 00:47:00,
2013-06-02 19:52:00,60.8,45.9,29.96,NE,45,0.0,1.2,58,0.00,OVC,FEW,0.00,WeatherDisplay:10.37,2013-06-03 00:52:00,
2013-06-02 19:58:00,60.8,45.9,29.96,NE,45,0.0,1.2,58,0.00,OVC,FEW,0.00,WeatherDisplay:10.37,2013-06-03 00:58:00,
2013-06-02 20:03:00,60.8,45.9,29.96,NE,45,0.0,1.2,58,0.00,OVC,FEW,0.00,WeatherDisplay:10.37,2013-06-03 01:03:00,
2013-06-02 20:09:00,59.9,45.5,29.96,North,0,0.7,2.3,59,0.00,OVC,FEW,0.00,WeatherDisplay:10.37,2013-06-03 01:09:00,
2013-06-02 20:15:00,59.9,46.0,29.96,North,0,0.0,0.0,60,0.00,OVC,FEW,0.00,WeatherDisplay:10.37,2013-06-03 01:15:00,
2013-06-02 20:20:00,59.9,46.0,29.96,North,0,0.0,1.2,60,0.00,OVC,FEW,0.00,WeatherDisplay:10.37,2013-06-03 01:20:00,
2013-06-02 20:26:00,59.9,46.0,29.96,North,0,0.0,1.2,60,0.00,OVC,FEW,0.00,WeatherDisplay:10.37,2013-06-03 01:26:00,
2013-06-02 20:31:00,59.9,46.0,29.96,North,0,0.0,1.2,60,0.00,OVC,FEW,0.00,WeatherDisplay:10.37,2013-06-03 01:31:00,
2013-06-02 20:37:00,59.9,46.0,29.96,North,0,0.0,1.2,60,0.00,OVC,FEW,0.00,WeatherDisplay:10.37,2013-06-03 01:37:00,
2013-06-02 20:43:00,57.2,46.3,29.96,NE,45,0.0,0.0,67,0.00,OVC,FEW,0.00,WeatherDisplay:10.37,2013-06-03 01:43:00,
2013-06-02 20:48:00,57.2,46.3,29.96,NE,45,0.0,0.0,67,0.00,OVC,FEW,0.00,WeatherDisplay:10.37,2013-06-03 01:48:00,
2013-06-02 20:54:00,56.8,47.2,29.96,East,90,0.0,0.0,70,0.00,OVC,FEW,0.00,WeatherDisplay:10.37,2013-06-03 01:54:00,
2013-06-02 20:59:00,56.1,46.8,29.96,East,90,0.0,0.0,71,0.00,OVC,FEW,0.00,WeatherDisplay:10.37,2013-06-03 01:59:00,
2013-06-02 21:05:00,55.8,46.5,29.96,East,90,0.0,0.0,71,0.00,OVC,FEW,0.00,WeatherDisplay:10.37,2013-06-03 02:05:00,
2013-06-02 21:11:00,55.6,46.7,29.96,East,90,0.0,0.0,72,0.00,OVC,FEW,0.00,WeatherDisplay:10.37,2013-06-03 02:11:00,
2013-06-02 21:16:00,55.2,46.3,29.96,East,90,0.0,0.0,72,0.00,OVC,FEW,0.00,WeatherDisplay:10.37,2013-06-03 02:16:00,
2013-06-02 21:22:00,55.0,46.9,29.96,East,90,0.0,0.0,74,0.00,OVC,FEW,0.00,WeatherDisplay:10.37,2013-06-03 02:22:00,
2013-06-02 21:27:00,54.7,46.9,29.96,East,90,0.0,0.0,75,0.00,OVC,FEW,0.00,WeatherDisplay:10.37,2013-06-03 02:27:00,
2013-06-02 21:33:00,54.5,46.7,29.96,East,90,0.0,0.0,75,0.00,OVC,FEW,0.00,WeatherDisplay:10.37,2013-06-03 02:33:00,
2013-06-02 21:39:00,54.1,46.4,29.97,East,90,0.0,0.0,75,0.00,OVC,FEW,0.00,WeatherDisplay:10.37,2013-06-03 02:39:00,
2013-06-02 21:44:00,54.0,46.6,29.97,East,90,0.0,0.0,76,0.00,OVC,FEW,0.00,WeatherDisplay:10.37,2013-06-03 02:44:00,
2013-06-02 21:50:00,54.0,46.9,29.96,East,90,0.0,0.0,77,0.00,OVC,FEW,0.00,WeatherDisplay:10.37,2013-06-03 02:50:00,
2013-06-02 21:55:00,53.8,46.7,29.97,East,90,0.0,0.0,77,0.00,OVC,FEW,0.00,WeatherDisplay:10.37,2013-06-03 02:55:00,
2013-06-02 22:02:00,53.6,46.9,29.97,East,90,0.0,0.0,78,0.00,OVC,FEW,0.00,WeatherDisplay:10.37,2013-06-03 03:02:00,
2013-06-02 22:07:00,53.4,46.7,29.98,East,90,0.0,0.0,78,0.00,OVC,FEW,0.00,WeatherDisplay:10.37,2013-06-03 03:07:00,
2013-06-02 22:13:00,53.1,46.7,29.97,SW,225,0.0,0.0,79,0.00,OVC,FEW,0.00,WeatherDisplay:10.37,2013-06-03 03:13:00,
2013-06-02 22:19:00,52.9,47.2,29.98,SW,225,0.0,0.0,81,0.00,OVC,FEW,0.00,WeatherDisplay:10.37,2013-06-03 03:19:00,
2013-06-02 22:24:00,52.5,46.9,29.98,SW,225,0.0,0.0,81,0.00,OVC,FEW,0.00,WeatherDisplay:10.37,2013-06-03 03:24:00,
2013-06-02 22:30:00,52.2,46.5,29.97,SW,225,0.0,0.0,81,0.00,OVC,FEW,0.00,WeatherDisplay:10.37,2013-06-03 03:30:00,
2013-06-02 22:35:00,52.2,47.2,29.97,SW,225,0.0,0.0,83,0.00,OVC,FEW,0.00,WeatherDisplay:10.37,2013-06-03 03:35:00,
2013-06-02 22:41:00,52.0,47.0,29.97,SW,225,0.0,0.0,83,0.00,OVC,FEW,0.00,WeatherDisplay:10.37,2013-06-03 03:41:00,
2013-06-02 22:47:00,51.6,46.9,29.97,SW,225,0.0,0.0,84,0.00,OVC,FEW,0.00,WeatherDisplay:10.37,2013-06-03 03:47:00,
2013-06-02 22:52:00,51.4,46.8,29.98,SW,225,0.0,0.0,84,0.00,OVC,FEW,0.00,WeatherDisplay:10.37,2013-06-03 03:52:00,
2013-06-02 22:58:00,51.4,46.8,29.98,SW,225,0.0,0.0,84,0.00,OVC,FEW,0.00,WeatherDisplay:10.37,2013-06-03 03:58:00,
2013-06-02 23:01:00,51.3,46.6,29.98,SW,225,0.0,0.0,84,0.00,OVC,FEW,0.00,WeatherDisplay:10.37,2013-06-03 04:01:00,
2013-06-02 23:03:00,51.1,46.4,29.98,SW,225,0.0,0.0,84,0.00,OVC,FEW,0.00,WeatherDisplay:10.37,2013-06-03 04:03:00,
2013-06-02 23:05:00,51.1,46.4,29.98,SW,225,0.0,0.0,84,0.00,OVC,FEW,0.00,WeatherDisplay:10.37,2013-06-03 04:05:00,
2013-06-02 23:07:00,51.1,46.4,29.98,SW,225,0.0,0.0,84,0.00,OVC,FEW,0.00,WeatherDisplay:10.37,2013-06-03 04:07:00,
2013-06-02 23:12:00,50.9,46.2,29.98,SW,225,0.0,0.0,84,0.00,OVC,FEW,0.00,WeatherDisplay:10.37,2013-06-03 04:12:00,
2013-06-02 23:18:00,50.9,46.2,29.98,SW,225,0.0,0.0,84,0.00,OVC,FEW,0.00,WeatherDisplay:10.37,2013-06-03 04:18:00,
2013-06-02 23:23:00,50.7,46.1,29.98,SW,225,0.0,0.0,84,0.00,OVC,FEW,0.00,WeatherDisplay:10.37,2013-06-03 04:23:00,
2013-06-02 23:29:00,50.5,45.9,29.98,SW,225,0.0,0.0,84,0.00,OVC,FEW,0.00,WeatherDisplay:10.37,2013-06-03 04:29:00,
2013-06-02 23:30:00,50.5,45.9,29.98,SW,225,0.0,0.0,84,0.00,OVC,FEW,0.00,WeatherDisplay:10.37,2013-06-03 04:30:00,
2013-06-02 23:35:00,50.7,46.1,29.99,SW,225,0.0,0.0,84,0.00,OVC,FEW,0.00,WeatherDisplay:10.37,2013-06-03 04:35:00,
2013-06-02 23:41:00,50.7,46.1,29.99,SW,225,0.0,0.0,84,0.00,OVC,FEW,0.00,WeatherDisplay:10.37,2013-06-03 04:41:00,
2013-06-02 23:47:00,50.5,45.9,29.99,SW,225,0.0,0.0,84,0.00,OVC,FEW,0.00,WeatherDisplay:10.37,2013-06-03 04:47:00,
2013-06-02 23:52:00,50.5,45.9,29.99,SW,225,0.0,0.0,84,0.00,OVC,FEW,0.00,WeatherDisplay:10.37,2013-06-03 04:52:00,
2013-06-02 23:58:00,50.5,45.9,29.99,SW,225,0.0,0.0,84,0.00,OVC,FEW,0.00,WeatherDisplay:10.37,2013-06-03 04:58:00,